Time;durP1;ratioP1;P1;durP2;ratioP2;P2;SDS_P1;SDS_P2;PMS_P1;PMS_P2;Temp;Humidity;BMP_temperature;BMP_pressure;BME280_temperature;BME280_humidity;BME280_pressure;Samples;Min_cycle;Max_cycle;Signal;HPM_P1;HPM_P2
2021/01/02 00:00:54;;;;;;;;;;;4.40;99.90;;;;;;5008539;28;20275;-64
2021/01/02 00:03:19;;;;;;;;;;;4.40;99.90;;;;;;5008306;28;19956;-64
2021/01/02 00:05:56;;;;;;;;;;;4.40;99.90;;;;;;5008462;28;19927;-64
2021/01/02 00:08:23;;;;;;;;;;;4.40;99.90;;;;;;5008191;28;19928;-64
2021/01/02 00:10:58;;;;;;;;;;;4.40;99.90;;;;;;5008165;28;19922;-64
2021/01/02 00:13:42;;;;;;;;;;;4.30;99.90;;;;;;5008206;28;19921;-65
2021/01/02 00:16:08;;;;;;;;;;;4.30;99.90;;;;;;5007998;28;19930;-64
2021/01/02 00:18:37;;;;;;;;;;;4.30;99.90;;;;;;5007011;28;19930;-64
2021/01/02 00:21:21;;;;;;;;;;;4.30;99.90;;;;;;5007982;28;19922;-64
2021/01/02 00:24:00;;;;;;;;;;;4.20;99.90;;;;;;5008151;28;19945;-64
2021/01/02 00:26:42;;;;;;;;;;;4.20;99.90;;;;;;5008005;28;19922;-64
2021/01/02 00:29:11;;;;;;;;;;;4.20;99.90;;;;;;5007961;28;19922;-64
2021/01/02 00:31:55;;;;;;;;;;;4.20;99.90;;;;;;5007972;28;19926;-64
2021/01/02 00:34:29;;;;;;;;;;;4.20;99.90;;;;;;5007820;28;19928;-64
2021/01/02 00:37:01;;;;;;;;;;;4.20;99.90;;;;;;5007722;28;19922;-64
2021/01/02 00:39:47;;;;;;;;;;;4.20;99.90;;;;;;5007835;28;19921;-64
2021/01/02 00:42:13;;;;;;;;;;;4.20;99.90;;;;;;5007627;28;19921;-64
2021/01/02 00:44:42;;;;;;;;;;;4.20;99.90;;;;;;5007552;28;19961;-64
2021/01/02 00:47:09;;;;;;;;;;;4.30;99.90;;;;;;5007619;28;19964;-65
2021/01/02 00:49:36;;;;;;;;;;;4.20;99.90;;;;;;5007765;28;20297;-64
2021/01/02 00:52:11;;;;;;;;;;;4.20;99.90;;;;;;5007530;28;19964;-65
2021/01/02 00:54:55;;;;;;;;;;;4.20;99.90;;;;;;5007442;28;19922;-64
2021/01/02 00:57:37;;;;;;;;;;;4.20;99.90;;;;;;5007454;28;20455;-64
2021/01/02 01:00:06;;;;;;;;;;;4.20;99.90;;;;;;5007206;28;20016;-64
2021/01/02 01:02:50;;;;;;;;;;;4.30;99.90;;;;;;5007378;28;19921;-64
2021/01/02 01:05:23;;;;;;;;;;;4.20;99.90;;;;;;5007218;28;19922;-65
2021/01/02 01:07:53;;;;;;;;;;;4.30;99.90;;;;;;5007213;28;19968;-65
2021/01/02 01:10:23;;;;;;;;;;;4.20;99.90;;;;;;5007374;28;19922;-65
2021/01/02 01:12:57;;;;;;;;;;;4.30;99.90;;;;;;5007240;28;19926;-64
2021/01/02 01:15:23;;;;;;;;;;;4.20;99.90;;;;;;5022357;28;19944;-65
2021/01/02 01:17:55;;;;;;;;;;;4.20;99.90;;;;;;5007029;28;19921;-65
2021/01/02 01:20:21;;;;;;;;;;;4.30;99.90;;;;;;5007243;28;19929;-64
2021/01/02 01:22:54;;;;;;;;;;;4.30;99.90;;;;;;5007021;28;19921;-64
2021/01/02 01:25:31;;;;;;;;;;;4.30;99.90;;;;;;5007147;28;19922;-65
2021/01/02 01:28:03;;;;;;;;;;;4.30;99.90;;;;;;5022424;28;19922;-64
2021/01/02 01:30:35;;;;;;;;;;;4.30;99.90;;;;;;5006529;28;19957;-64
2021/01/02 01:33:01;;;;;;;;;;;4.30;99.90;;;;;;5006930;28;19929;-64
2021/01/02 01:35:28;;;;;;;;;;;4.30;99.90;;;;;;5007025;28;19918;-65
2021/01/02 01:37:55;;;;;;;;;;;4.20;99.90;;;;;;5006971;28;19922;-65
2021/01/02 01:40:30;;;;;;;;;;;4.20;99.90;;;;;;5006891;28;20293;-65
2021/01/02 01:43:03;;;;;;;;;;;4.20;99.90;;;;;;5006750;28;19922;-64
2021/01/02 01:45:29;;;;;;;;;;;4.20;99.90;;;;;;5007033;28;19921;-64
2021/01/02 01:48:16;;;;;;;;;;;4.30;99.90;;;;;;5006690;28;19976;-64
2021/01/02 01:51:00;;;;;;;;;;;4.20;99.90;;;;;;5006648;28;19929;-64
2021/01/02 01:53:45;;;;;;;;;;;4.20;99.90;;;;;;5006807;28;20009;-65
2021/01/02 01:56:13;;;;;;;;;;;4.20;99.90;;;;;;5006613;28;19928;-65
2021/01/02 01:58:54;;;;;;;;;;;4.30;99.90;;;;;;5006618;28;19961;-64
2021/01/02 02:01:22;;;;;;;;;;;4.30;99.90;;;;;;5006692;28;20329;-65
2021/01/02 02:03:59;;;;;;;;;;;4.30;99.90;;;;;;5006611;28;19921;-65
2021/01/02 02:06:32;;;;;;;;;;;4.30;99.90;;;;;;5006694;28;20416;-65
2021/01/02 02:08:59;;;;;;;;;;;4.30;99.90;;;;;;5006842;28;19932;-64
2021/01/02 02:11:33;;;;;;;;;;;4.30;99.90;;;;;;5006616;28;19977;-64
2021/01/02 02:14:25;;;;;;;;;;;4.30;99.90;;;;;;5006492;28;19922;-64
2021/01/02 02:16:52;;;;;;;;;;;4.30;99.90;;;;;;4946352;29;19922;-65
2021/01/02 02:19:36;;;;;;;;;;;4.30;99.90;;;;;;4946536;29;20013;-65
2021/01/02 02:22:03;;;;;;;;;;;4.20;99.90;;;;;;4946421;29;19958;-64
2021/01/02 02:24:30;;;;;;;;;;;4.20;99.90;;;;;;4946500;29;19923;-64
2021/01/02 02:26:56;;;;;;;;;;;4.20;99.90;;;;;;4946261;29;19929;-65
2021/01/02 02:29:28;;;;;;;;;;;4.20;99.90;;;;;;4946677;29;20009;-64
2021/01/02 02:31:55;;;;;;;;;;;4.20;99.90;;;;;;4946426;29;19930;-64
2021/01/02 02:34:21;;;;;;;;;;;4.20;99.90;;;;;;4946425;29;19929;-64
2021/01/02 02:36:47;;;;;;;;;;;4.20;99.90;;;;;;4946355;29;19923;-64
2021/01/02 02:39:13;;;;;;;;;;;4.20;99.90;;;;;;4946253;29;19933;-64
2021/01/02 02:41:42;;;;;;;;;;;4.20;99.90;;;;;;4947974;29;19944;-64
2021/01/02 02:44:09;;;;;;;;;;;4.20;99.90;;;;;;4949895;29;19951;-64
2021/01/02 02:46:38;;;;;;;;;;;4.10;99.90;;;;;;4949735;29;19922;-64
2021/01/02 02:49:09;;;;;;;;;;;4.20;99.90;;;;;;4949506;29;19923;-64
2021/01/02 02:51:42;;;;;;;;;;;4.10;99.90;;;;;;4949598;29;19930;-64
2021/01/02 02:54:09;;;;;;;;;;;4.10;99.90;;;;;;4992755;28;19928;-64
2021/01/02 02:56:34;;;;;;;;;;;4.10;99.90;;;;;;5009821;28;19928;-64
2021/01/02 02:59:00;;;;;;;;;;;4.10;99.90;;;;;;5009488;28;19953;-65
2021/01/02 03:01:27;;;;;;;;;;;4.10;99.90;;;;;;5009577;28;19966;-64
2021/01/02 03:03:54;;;;;;;;;;;4.00;99.90;;;;;;5009369;28;19922;-64
2021/01/02 03:06:21;;;;;;;;;;;4.00;99.90;;;;;;5009466;28;19921;-65
2021/01/02 03:08:50;;;;;;;;;;;3.90;99.90;;;;;;5009475;28;19968;-64
2021/01/02 03:11:18;;;;;;;;;;;3.90;99.90;;;;;;5009410;28;19956;-64
2021/01/02 03:13:45;;;;;;;;;;;3.80;99.90;;;;;;5009351;28;20567;-64
2021/01/02 03:16:10;;;;;;;;;;;3.70;99.90;;;;;;5009298;28;19936;-64
2021/01/02 03:18:36;;;;;;;;;;;3.70;99.90;;;;;;5009259;28;19949;-65
2021/01/02 03:21:02;;;;;;;;;;;3.70;99.90;;;;;;5009077;28;19918;-64
2021/01/02 03:23:27;;;;;;;;;;;3.60;99.90;;;;;;5009154;28;19933;-65
2021/01/02 03:25:53;;;;;;;;;;;3.60;99.90;;;;;;5009129;28;19921;-65
2021/01/02 03:28:18;;;;;;;;;;;3.50;99.90;;;;;;5009023;28;19924;-65
2021/01/02 03:30:44;;;;;;;;;;;3.50;99.90;;;;;;5009001;28;20004;-64
2021/01/02 03:33:10;;;;;;;;;;;3.40;99.90;;;;;;5008989;28;19928;-64
2021/01/02 03:35:35;;;;;;;;;;;3.30;99.90;;;;;;5008862;28;19929;-64
2021/01/02 03:38:01;;;;;;;;;;;3.30;99.90;;;;;;5008794;28;19933;-64
2021/01/02 03:40:27;;;;;;;;;;;3.20;99.90;;;;;;5008779;28;19945;-64
2021/01/02 03:42:52;;;;;;;;;;;3.20;99.90;;;;;;5008724;28;20293;-65
2021/01/02 03:45:18;;;;;;;;;;;3.10;99.90;;;;;;5007572;28;20370;-64
2021/01/02 03:47:45;;;;;;;;;;;3.10;99.90;;;;;;5008723;28;19922;-65
2021/01/02 03:50:10;;;;;;;;;;;3.00;99.90;;;;;;5008547;28;19922;-64
2021/01/02 03:52:37;;;;;;;;;;;3.00;99.90;;;;;;5008479;28;19929;-64
2021/01/02 03:55:04;;;;;;;;;;;3.10;99.90;;;;;;5008495;28;19922;-64
2021/01/02 03:57:29;;;;;;;;;;;3.00;99.90;;;;;;5008283;28;19922;-64
2021/01/02 03:59:55;;;;;;;;;;;2.90;99.90;;;;;;5008331;28;19985;-64
2021/01/02 04:02:21;;;;;;;;;;;2.90;99.90;;;;;;5008306;28;20006;-64
2021/01/02 04:04:46;;;;;;;;;;;2.90;99.90;;;;;;5008179;28;19968;-64
2021/01/02 04:07:12;;;;;;;;;;;2.80;99.90;;;;;;5008084;28;19921;-64
2021/01/02 04:09:37;;;;;;;;;;;2.80;99.90;;;;;;5006730;28;19948;-64
2021/01/02 04:12:03;;;;;;;;;;;2.70;99.90;;;;;;5008029;28;19921;-64
2021/01/02 04:14:29;;;;;;;;;;;2.70;99.90;;;;;;5008200;28;19925;-64
2021/01/02 04:16:54;;;;;;;;;;;2.50;99.90;;;;;;5007838;28;19922;-64
2021/01/02 04:19:20;;;;;;;;;;;2.60;99.90;;;;;;5007751;28;19945;-63
2021/01/02 04:21:46;;;;;;;;;;;2.50;99.90;;;;;;5007697;28;19946;-62
2021/01/02 04:24:12;;;;;;;;;;;3.10;99.90;;;;;;5007774;28;19985;-63
2021/01/02 04:26:39;;;;;;;;;;;2.60;99.90;;;;;;5007795;28;20286;-63
2021/01/02 04:29:05;;;;;;;;;;;2.80;99.90;;;;;;5007793;28;19969;-63
2021/01/02 04:31:40;;;;;;;;;;;2.90;99.90;;;;;;5007706;28;19925;-63
2021/01/02 04:34:07;;;;;;;;;;;2.70;99.90;;;;;;5007550;28;19922;-63
2021/01/02 04:36:34;;;;;;;;;;;2.60;99.90;;;;;;5007505;28;19952;-63
2021/01/02 04:38:59;;;;;;;;;;;2.80;99.90;;;;;;5022710;28;19953;-63
2021/01/02 04:41:25;;;;;;;;;;;2.50;99.90;;;;;;5007654;28;19945;-63
2021/01/02 04:43:51;;;;;;;;;;;2.90;99.90;;;;;;5007794;28;19925;-63
2021/01/02 04:46:17;;;;;;;;;;;3.00;99.90;;;;;;5007447;28;19922;-63
2021/01/02 04:48:48;;;;;;;;;;;2.60;99.90;;;;;;5007204;28;19961;-63
2021/01/02 04:51:14;;;;;;;;;;;2.50;99.90;;;;;;5007395;28;20021;-63
2021/01/02 04:53:40;;;;;;;;;;;2.40;99.90;;;;;;5022350;28;19949;-63
2021/01/02 04:56:07;;;;;;;;;;;2.40;99.90;;;;;;5007317;28;19922;-63
2021/01/02 04:58:42;;;;;;;;;;;2.30;99.90;;;;;;5007229;28;19952;-64
2021/01/02 05:01:09;;;;;;;;;;;2.20;99.90;;;;;;5007153;28;19932;-64
2021/01/02 05:03:35;;;;;;;;;;;2.10;99.90;;;;;;5006625;28;19929;-63
2021/01/02 05:06:02;;;;;;;;;;;2.20;99.90;;;;;;5007036;28;19917;-64
2021/01/02 05:08:28;;;;;;;;;;;2.20;99.90;;;;;;5007300;28;19928;-63
2021/01/02 05:10:58;;;;;;;;;;;2.30;99.90;;;;;;5007020;28;19922;-63
2021/01/02 05:13:27;;;;;;;;;;;2.20;99.90;;;;;;5006971;28;19980;-63
2021/01/02 05:15:52;;;;;;;;;;;2.10;99.90;;;;;;5007072;28;19922;-64
2021/01/02 05:18:18;;;;;;;;;;;2.10;99.90;;;;;;5006879;28;19932;-63
2021/01/02 05:20:44;;;;;;;;;;;2.10;99.90;;;;;;5006919;28;19925;-63
2021/01/02 05:23:09;;;;;;;;;;;2.10;99.90;;;;;;5006830;28;19921;-63
2021/01/02 05:25:36;;;;;;;;;;;2.10;99.90;;;;;;5021893;28;19922;-63
2021/01/02 05:28:02;;;;;;;;;;;2.20;99.90;;;;;;5006782;28;20436;-63
2021/01/02 05:30:31;;;;;;;;;;;2.20;99.90;;;;;;5006791;28;19925;-63
2021/01/02 05:32:57;;;;;;;;;;;2.20;99.90;;;;;;5006643;28;19922;-63
2021/01/02 05:35:23;;;;;;;;;;;2.20;99.90;;;;;;5006712;28;19964;-63
2021/01/02 05:37:49;;;;;;;;;;;2.30;99.90;;;;;;5006652;28;20050;-63
2021/01/02 05:40:31;;;;;;;;;;;2.20;99.90;;;;;;5006730;28;19996;-63
2021/01/02 05:42:56;;;;;;;;;;;2.30;99.90;;;;;;5006651;28;19929;-63
2021/01/02 05:45:26;;;;;;;;;;;2.30;99.90;;;;;;5006519;28;19922;-63
2021/01/02 05:47:51;;;;;;;;;;;2.30;99.90;;;;;;5006796;28;19929;-63
2021/01/02 05:50:19;;;;;;;;;;;2.30;99.90;;;;;;5006471;28;19921;-62
2021/01/02 05:52:48;;;;;;;;;;;2.30;99.90;;;;;;5006664;28;19922;-63
2021/01/02 05:55:27;;;;;;;;;;;2.40;99.90;;;;;;5006555;28;19922;-64
2021/01/02 05:57:53;;;;;;;;;;;2.40;99.90;;;;;;5006607;28;19930;-64
2021/01/02 06:00:19;;;;;;;;;;;2.40;99.90;;;;;;5006385;28;20001;-63
2021/01/02 06:02:45;;;;;;;;;;;2.40;99.90;;;;;;5006574;28;19957;-63
2021/01/02 06:05:11;;;;;;;;;;;2.40;99.90;;;;;;5006616;28;19922;-63
2021/01/02 06:07:38;;;;;;;;;;;2.50;99.90;;;;;;5006431;28;19999;-63
2021/01/02 06:10:05;;;;;;;;;;;2.60;99.90;;;;;;5006489;28;19922;-63
2021/01/02 06:12:31;;;;;;;;;;;2.50;99.90;;;;;;5006365;28;19922;-63
2021/01/02 06:14:59;;;;;;;;;;;2.60;99.90;;;;;;5006431;28;19928;-63
2021/01/02 06:17:34;;;;;;;;;;;2.60;99.90;;;;;;5009297;28;19940;-63
2021/01/02 06:20:01;;;;;;;;;;;2.60;99.90;;;;;;5010164;28;19929;-64
2021/01/02 06:22:31;;;;;;;;;;;2.60;99.90;;;;;;5010145;28;19922;-63
2021/01/02 06:24:56;;;;;;;;;;;2.70;99.90;;;;;;5009996;28;19932;-64
2021/01/02 06:27:22;;;;;;;;;;;2.80;99.90;;;;;;5010010;28;19925;-64
2021/01/02 06:30:08;;;;;;;;;;;2.80;99.90;;;;;;5009928;28;20365;-64
2021/01/02 06:32:34;;;;;;;;;;;2.70;99.90;;;;;;5009551;28;19922;-64
2021/01/02 06:35:06;;;;;;;;;;;2.80;99.90;;;;;;5009729;28;19925;-64
2021/01/02 06:37:47;;;;;;;;;;;2.90;99.90;;;;;;5009776;28;19922;-63
2021/01/02 06:40:23;;;;;;;;;;;2.80;99.90;;;;;;5010034;28;19928;-64
2021/01/02 06:43:07;;;;;;;;;;;2.80;99.90;;;;;;5009686;28;19948;-63
2021/01/02 06:45:39;;;;;;;;;;;2.90;99.90;;;;;;5009559;28;19921;-63
2021/01/02 06:48:17;;;;;;;;;;;2.90;99.90;;;;;;5009437;28;19921;-63
2021/01/02 06:50:44;;;;;;;;;;;2.90;99.90;;;;;;5009472;28;20316;-63
2021/01/02 06:53:17;;;;;;;;;;;2.90;99.90;;;;;;5009777;28;19953;-63
2021/01/02 06:55:42;;;;;;;;;;;2.80;99.90;;;;;;5009594;28;19921;-64
2021/01/02 06:58:18;;;;;;;;;;;2.90;99.90;;;;;;5009712;28;19926;-65
2021/01/02 07:00:44;;;;;;;;;;;2.80;99.90;;;;;;5009432;28;19928;-64
2021/01/02 07:03:29;;;;;;;;;;;2.80;99.90;;;;;;5009304;28;19922;-64
2021/01/02 07:05:55;;;;;;;;;;;2.80;99.90;;;;;;5009388;28;19921;-63
2021/01/02 07:08:40;;;;;;;;;;;3.00;99.90;;;;;;5009396;28;19921;-64
2021/01/02 07:11:24;;;;;;;;;;;3.00;99.90;;;;;;5009363;28;19976;-64
2021/01/02 07:14:14;;;;;;;;;;;2.90;99.90;;;;;;5009288;28;20009;-64
2021/01/02 07:17:12;;;;;;;;;;;2.90;99.90;;;;;;5001813;28;19928;-64
2021/01/02 07:19:37;;;;;;;;;;;3.00;99.90;;;;;;4997638;28;19921;-64
2021/01/02 07:22:03;;;;;;;;;;;3.00;99.90;;;;;;5009405;28;19945;-64
2021/01/02 07:24:30;;;;;;;;;;;3.00;99.90;;;;;;5009231;28;20293;-64
2021/01/02 07:27:02;;;;;;;;;;;3.00;99.90;;;;;;5008727;28;19929;-64
2021/01/02 07:29:29;;;;;;;;;;;3.00;99.90;;;;;;5009026;28;20393;-64
2021/01/02 07:32:13;;;;;;;;;;;3.00;99.90;;;;;;5008940;28;19944;-64
2021/01/02 07:34:40;;;;;;;;;;;3.00;99.90;;;;;;5008900;28;19977;-64
2021/01/02 07:37:13;;;;;;;;;;;3.00;99.90;;;;;;5008993;28;19928;-64
2021/01/02 07:39:39;;;;;;;;;;;3.10;99.90;;;;;;5008975;28;19926;-64
2021/01/02 07:42:06;;;;;;;;;;;3.20;99.90;;;;;;5008881;28;19917;-65
2021/01/02 07:44:33;;;;;;;;;;;3.20;99.90;;;;;;5008766;28;19922;-64
2021/01/02 07:46:59;;;;;;;;;;;3.20;99.90;;;;;;5008760;28;19950;-64
2021/01/02 07:49:24;;;;;;;;;;;3.20;99.90;;;;;;5008503;28;20004;-64
2021/01/02 07:51:50;;;;;;;;;;;3.40;99.90;;;;;;5008720;28;19922;-64
2021/01/02 07:54:29;;;;;;;;;;;3.20;99.90;;;;;;5008639;28;19922;-64
2021/01/02 07:56:55;;;;;;;;;;;3.20;99.90;;;;;;5008552;28;19922;-64
2021/01/02 07:59:26;;;;;;;;;;;3.10;99.90;;;;;;5008393;28;20040;-64
2021/01/02 08:01:52;;;;;;;;;;;3.00;99.90;;;;;;5008456;28;19977;-64
2021/01/02 08:04:18;;;;;;;;;;;4.40;99.90;;;;;;5008405;28;19932;-64
2021/01/02 08:07:07;;;;;;;;;;;3.00;99.90;;;;;;5008408;28;20312;-64
2021/01/02 08:09:34;;;;;;;;;;;3.00;99.90;;;;;;5000278;28;19928;-64
2021/01/02 08:12:00;;;;;;;;;;;3.10;99.90;;;;;;5008429;28;20373;-64
2021/01/02 08:14:27;;;;;;;;;;;3.10;99.90;;;;;;5008090;28;19928;-65
2021/01/02 08:16:56;;;;;;;;;;;3.10;99.90;;;;;;5008315;28;20009;-64
2021/01/02 08:19:22;;;;;;;;;;;3.10;99.90;;;;;;5008066;28;19921;-64
2021/01/02 08:21:49;;;;;;;;;;;3.10;99.90;;;;;;5008003;28;20332;-64
2021/01/02 08:24:16;;;;;;;;;;;3.10;99.90;;;;;;5007609;28;19953;-64
2021/01/02 08:26:42;;;;;;;;;;;3.10;99.90;;;;;;5007957;28;19948;-64
2021/01/02 08:29:08;;;;;;;;;;;3.10;99.90;;;;;;5008055;28;19926;-64
2021/01/02 08:31:35;;;;;;;;;;;3.00;99.90;;;;;;5007908;28;19944;-64
2021/01/02 08:34:01;;;;;;;;;;;3.00;99.90;;;;;;5007748;28;20362;-64
2021/01/02 08:36:27;;;;;;;;;;;3.00;99.90;;;;;;5007844;28;19981;-64
2021/01/02 08:38:59;;;;;;;;;;;3.00;99.90;;;;;;5006892;28;19929;-64
2021/01/02 08:41:26;;;;;;;;;;;3.00;99.90;;;;;;5007885;28;19976;-64
2021/01/02 08:43:53;;;;;;;;;;;3.10;99.90;;;;;;5007762;28;19922;-64
2021/01/02 08:46:26;;;;;;;;;;;3.10;99.90;;;;;;5007847;28;19922;-64
2021/01/02 08:48:51;;;;;;;;;;;3.20;99.90;;;;;;5007385;28;19917;-65
2021/01/02 08:51:24;;;;;;;;;;;3.20;99.90;;;;;;5006378;28;19929;-64
2021/01/02 08:53:49;;;;;;;;;;;3.20;99.90;;;;;;5038881;28;19929;-64
2021/01/02 08:56:22;;;;;;;;;;;3.30;99.90;;;;;;5007618;28;19928;-64
2021/01/02 08:58:48;;;;;;;;;;;3.30;99.90;;;;;;5007264;28;19944;-64
2021/01/02 09:01:14;;;;;;;;;;;3.40;99.90;;;;;;5007323;28;19928;-64
2021/01/02 09:03:40;;;;;;;;;;;3.50;99.90;;;;;;5007244;28;19961;-63
2021/01/02 09:06:18;;;;;;;;;;;3.50;99.90;;;;;;5007078;28;19918;-63
2021/01/02 09:08:44;;;;;;;;;;;3.50;99.90;;;;;;5007108;28;19922;-65
2021/01/02 09:11:10;;;;;;;;;;;3.50;99.90;;;;;;5007302;28;20000;-64
2021/01/02 09:13:35;;;;;;;;;;;3.60;99.90;;;;;;5007185;28;19989;-64
2021/01/02 09:16:05;;;;;;;;;;;3.70;99.90;;;;;;5007120;28;19953;-64
2021/01/02 09:18:31;;;;;;;;;;;3.60;99.90;;;;;;5007135;28;19921;-64
2021/01/02 09:20:59;;;;;;;;;;;3.50;99.90;;;;;;5007027;28;20392;-64
2021/01/02 09:23:28;;;;;;;;;;;3.60;99.90;;;;;;5006981;28;19929;-64
2021/01/02 09:25:54;;;;;;;;;;;3.60;99.90;;;;;;5006976;28;20009;-63
2021/01/02 09:28:19;;;;;;;;;;;3.60;99.90;;;;;;5006951;28;19926;-63
2021/01/02 09:30:47;;;;;;;;;;;3.60;99.90;;;;;;5006939;28;19922;-65
2021/01/02 09:33:13;;;;;;;;;;;3.60;99.90;;;;;;5007096;28;19994;-65
2021/01/02 09:35:39;;;;;;;;;;;3.80;99.90;;;;;;5006978;28;19922;-65
2021/01/02 09:38:05;;;;;;;;;;;3.90;99.90;;;;;;5038516;28;19917;-65
2021/01/02 09:40:32;;;;;;;;;;;4.00;99.90;;;;;;5006938;28;19921;-65
2021/01/02 09:42:58;;;;;;;;;;;3.80;99.90;;;;;;5006944;28;19929;-64
2021/01/02 09:45:23;;;;;;;;;;;3.90;99.90;;;;;;5006526;28;19922;-65
2021/01/02 09:47:49;;;;;;;;;;;4.00;99.90;;;;;;5006646;28;20289;-64
2021/01/02 09:50:15;;;;;;;;;;;4.00;99.90;;;;;;5007909;28;19979;-64
2021/01/02 09:52:40;;;;;;;;;;;3.90;99.90;;;;;;5010861;28;19921;-64
2021/01/02 09:55:07;;;;;;;;;;;4.00;99.90;;;;;;5010745;28;19929;-64
2021/01/02 09:57:32;;;;;;;;;;;3.90;99.90;;;;;;5010846;28;19918;-64
2021/01/02 09:59:58;;;;;;;;;;;4.10;99.90;;;;;;5010555;28;19981;-64
2021/01/02 10:02:24;;;;;;;;;;;3.90;99.90;;;;;;5010707;28;19922;-64
2021/01/02 10:04:50;;;;;;;;;;;3.90;99.90;;;;;;5010456;28;19993;-64
2021/01/02 10:07:16;;;;;;;;;;;4.00;99.90;;;;;;5010633;28;19922;-64
2021/01/02 10:09:43;;;;;;;;;;;3.90;99.90;;;;;;5010426;28;19972;-64
2021/01/02 10:12:09;;;;;;;;;;;3.90;99.90;;;;;;5010583;28;19921;-64
2021/01/02 10:14:35;;;;;;;;;;;3.80;99.90;;;;;;5010493;28;19968;-65
2021/01/02 10:17:01;;;;;;;;;;;3.90;99.90;;;;;;5010603;28;19918;-64
2021/01/02 10:19:27;;;;;;;;;;;4.10;99.90;;;;;;5010121;28;19948;-64
2021/01/02 10:21:53;;;;;;;;;;;4.30;99.90;;;;;;5010329;28;19921;-64
2021/01/02 10:24:18;;;;;;;;;;;4.00;99.90;;;;;;5010387;28;19945;-65
2021/01/02 10:26:44;;;;;;;;;;;4.00;99.90;;;;;;5010390;28;19922;-64
2021/01/02 10:29:10;;;;;;;;;;;4.30;99.90;;;;;;5010107;28;19945;-65
2021/01/02 10:31:35;;;;;;;;;;;4.10;99.90;;;;;;5010250;28;19929;-64
2021/01/02 10:34:01;;;;;;;;;;;4.00;99.90;;;;;;5009955;28;19928;-64
2021/01/02 10:36:27;;;;;;;;;;;4.10;99.90;;;;;;5009804;28;19933;-64
2021/01/02 10:38:52;;;;;;;;;;;4.10;99.90;;;;;;5010074;28;19921;-65
2021/01/02 10:41:18;;;;;;;;;;;4.10;99.90;;;;;;5009991;28;19990;-64
2021/01/02 10:43:44;;;;;;;;;;;4.10;99.90;;;;;;5009756;28;19917;-65
2021/01/02 10:46:10;;;;;;;;;;;4.10;99.90;;;;;;5010040;28;19984;-64
2021/01/02 10:48:36;;;;;;;;;;;4.10;99.90;;;;;;5009703;28;20052;-64
2021/01/02 10:51:02;;;;;;;;;;;4.20;99.90;;;;;;5009699;28;20403;-64
2021/01/02 10:53:28;;;;;;;;;;;4.20;99.90;;;;;;5009881;28;20393;-64
2021/01/02 10:55:53;;;;;;;;;;;4.20;99.90;;;;;;5009793;28;19918;-64
2021/01/02 10:58:19;;;;;;;;;;;4.20;99.90;;;;;;5009897;28;19922;-64
2021/01/02 11:00:44;;;;;;;;;;;4.20;99.90;;;;;;5009539;28;19957;-64
2021/01/02 11:03:11;;;;;;;;;;;4.20;99.90;;;;;;5008586;28;19921;-65
2021/01/02 11:05:36;;;;;;;;;;;4.30;99.90;;;;;;5009604;28;19993;-64
2021/01/02 11:08:02;;;;;;;;;;;4.20;99.90;;;;;;5009502;28;19922;-64
2021/01/02 11:10:28;;;;;;;;;;;4.10;99.90;;;;;;5009518;28;19925;-64
2021/01/02 11:12:53;;;;;;;;;;;4.00;99.90;;;;;;5009641;28;19921;-64
2021/01/02 11:15:19;;;;;;;;;;;4.00;99.90;;;;;;5009311;28;19929;-65
2021/01/02 11:17:46;;;;;;;;;;;4.00;99.90;;;;;;5009173;28;19940;-64
2021/01/02 11:20:12;;;;;;;;;;;4.10;99.90;;;;;;5009364;28;19922;-64
2021/01/02 11:22:39;;;;;;;;;;;4.00;99.90;;;;;;5009321;28;19925;-65
2021/01/02 11:25:05;;;;;;;;;;;4.00;99.90;;;;;;5009054;28;19944;-64
2021/01/02 11:27:30;;;;;;;;;;;4.00;99.90;;;;;;5009245;28;20389;-64
2021/01/02 11:29:56;;;;;;;;;;;4.10;99.90;;;;;;5008899;28;19934;-65
2021/01/02 11:32:22;;;;;;;;;;;4.20;99.90;;;;;;5008959;28;19989;-64
2021/01/02 11:34:47;;;;;;;;;;;4.30;99.90;;;;;;5008919;28;19949;-64
2021/01/02 11:37:13;;;;;;;;;;;4.60;99.90;;;;;;5008936;28;19953;-65
2021/01/02 11:39:39;;;;;;;;;;;4.40;99.90;;;;;;5008811;28;19921;-64
2021/01/02 11:42:07;;;;;;;;;;;4.50;99.90;;;;;;5008972;28;19921;-64
2021/01/02 11:44:33;;;;;;;;;;;4.50;99.90;;;;;;5008688;28;19929;-64
2021/01/02 11:46:59;;;;;;;;;;;4.30;99.90;;;;;;5008741;28;19926;-64
2021/01/02 11:49:27;;;;;;;;;;;4.40;99.90;;;;;;5023545;28;20431;-64
2021/01/02 11:51:55;;;;;;;;;;;4.60;99.90;;;;;;5008636;28;19929;-65
2021/01/02 11:54:21;;;;;;;;;;;4.50;99.90;;;;;;5008537;28;20377;-65
2021/01/02 11:56:47;;;;;;;;;;;4.80;99.90;;;;;;5008824;28;19921;-64
2021/01/02 11:59:13;;;;;;;;;;;4.80;99.90;;;;;;5008374;28;19949;-64
2021/01/02 12:01:40;;;;;;;;;;;4.80;99.90;;;;;;5008379;28;19926;-63
2021/01/02 12:04:07;;;;;;;;;;;4.70;99.90;;;;;;5008263;28;19925;-64
2021/01/02 12:06:33;;;;;;;;;;;4.80;99.90;;;;;;5008333;28;19933;-64
2021/01/02 12:08:58;;;;;;;;;;;4.90;99.90;;;;;;5008238;28;19925;-64
2021/01/02 12:11:25;;;;;;;;;;;4.90;99.90;;;;;;5008338;28;20403;-64
2021/01/02 12:13:51;;;;;;;;;;;4.70;99.90;;;;;;5008204;28;19922;-64
2021/01/02 12:16:16;;;;;;;;;;;4.80;99.90;;;;;;5008045;28;20017;-64
2021/01/02 12:18:42;;;;;;;;;;;4.70;99.90;;;;;;5008065;28;19922;-64
2021/01/02 12:21:08;;;;;;;;;;;4.70;99.90;;;;;;5008287;28;19949;-64
2021/01/02 12:23:33;;;;;;;;;;;4.70;99.90;;;;;;5008025;28;20020;-64
2021/01/02 12:25:59;;;;;;;;;;;4.70;99.90;;;;;;5008116;28;19928;-64
2021/01/02 12:28:25;;;;;;;;;;;4.70;99.90;;;;;;5008050;28;19921;-65
2021/01/02 12:30:50;;;;;;;;;;;4.70;99.90;;;;;;5007861;28;19922;-65
2021/01/02 12:33:16;;;;;;;;;;;4.60;99.90;;;;;;5007904;28;19922;-65
2021/01/02 12:35:42;;;;;;;;;;;4.60;99.90;;;;;;5007658;28;19924;-65
2021/01/02 12:38:07;;;;;;;;;;;4.70;99.90;;;;;;5007855;28;19921;-65
2021/01/02 12:40:33;;;;;;;;;;;4.70;99.90;;;;;;5007813;28;19928;-64
2021/01/02 12:42:58;;;;;;;;;;;4.60;99.90;;;;;;5007677;28;19956;-64
2021/01/02 12:45:24;;;;;;;;;;;4.60;99.90;;;;;;5007532;28;19928;-64
2021/01/02 12:47:50;;;;;;;;;;;4.70;99.90;;;;;;5007509;28;19984;-64
2021/01/02 12:50:15;;;;;;;;;;;4.70;99.90;;;;;;5007327;28;19922;-64
2021/01/02 12:52:41;;;;;;;;;;;4.70;99.90;;;;;;5007615;28;19922;-64
2021/01/02 12:55:07;;;;;;;;;;;4.80;99.90;;;;;;5007447;28;20407;-64
2021/01/02 12:57:33;;;;;;;;;;;4.80;99.90;;;;;;5007379;28;19921;-64
2021/01/02 12:59:58;;;;;;;;;;;4.80;99.90;;;;;;5007195;28;19933;-64
2021/01/02 13:02:24;;;;;;;;;;;4.80;99.90;;;;;;5007085;28;19921;-64
2021/01/02 13:04:50;;;;;;;;;;;4.80;99.90;;;;;;5007183;28;19921;-64
2021/01/02 13:07:17;;;;;;;;;;;4.80;99.90;;;;;;5007227;28;20017;-64
2021/01/02 13:09:44;;;;;;;;;;;4.80;99.90;;;;;;5007284;28;19929;-64
2021/01/02 13:12:09;;;;;;;;;;;4.80;99.90;;;;;;5007380;28;20369;-64
2021/01/02 13:14:39;;;;;;;;;;;4.70;99.90;;;;;;5007200;28;19925;-64
2021/01/02 13:17:05;;;;;;;;;;;4.70;99.90;;;;;;5007038;28;19922;-63
2021/01/02 13:19:31;;;;;;;;;;;4.70;99.90;;;;;;5007110;28;19985;-65
2021/01/02 13:21:58;;;;;;;;;;;4.70;99.90;;;;;;5007131;28;19924;-65
2021/01/02 13:24:25;;;;;;;;;;;4.70;99.90;;;;;;5006667;28;20290;-64
2021/01/02 13:26:52;;;;;;;;;;;4.80;99.90;;;;;;5007001;28;19972;-64
2021/01/02 13:29:18;;;;;;;;;;;4.80;99.90;;;;;;5006860;28;19983;-64
2021/01/02 13:31:45;;;;;;;;;;;4.90;99.90;;;;;;5006869;28;19989;-64
2021/01/02 13:34:11;;;;;;;;;;;5.00;99.90;;;;;;5006859;28;20009;-64
2021/01/02 13:36:39;;;;;;;;;;;5.00;99.90;;;;;;5006882;28;19944;-64
2021/01/02 13:39:06;;;;;;;;;;;5.10;99.90;;;;;;5006992;28;19944;-64
2021/01/02 13:41:32;;;;;;;;;;;5.20;99.90;;;;;;5006966;28;19928;-64
2021/01/02 13:43:58;;;;;;;;;;;5.10;99.90;;;;;;5006784;28;19945;-65
2021/01/02 13:46:23;;;;;;;;;;;5.10;99.90;;;;;;5006721;28;19928;-64
2021/01/02 13:48:49;;;;;;;;;;;5.10;99.90;;;;;;5006893;28;19948;-65
2021/01/02 13:51:15;;;;;;;;;;;5.10;99.90;;;;;;5007011;28;19929;-65
2021/01/02 13:53:40;;;;;;;;;;;5.00;99.90;;;;;;5006810;28;19922;-65
2021/01/02 13:56:09;;;;;;;;;;;5.00;99.90;;;;;;5006829;28;19922;-65
2021/01/02 13:58:34;;;;;;;;;;;5.00;99.90;;;;;;5006800;28;19921;-64
2021/01/02 14:01:00;;;;;;;;;;;5.00;99.90;;;;;;5006337;28;19922;-64
2021/01/02 14:03:26;;;;;;;;;;;5.00;99.90;;;;;;5006625;28;20061;-64
2021/01/02 14:05:52;;;;;;;;;;;4.90;99.90;;;;;;5007024;28;19921;-65
2021/01/02 14:08:17;;;;;;;;;;;4.90;99.90;;;;;;5006829;28;19961;-64
2021/01/02 14:10:43;;;;;;;;;;;4.90;99.90;;;;;;5006501;28;20029;-64
2021/01/02 14:13:09;;;;;;;;;;;4.90;99.90;;;;;;5006497;28;19928;-64
2021/01/02 14:15:34;;;;;;;;;;;4.70;99.90;;;;;;5006466;28;19953;-65
2021/01/02 14:18:00;;;;;;;;;;;4.70;99.90;;;;;;5006481;28;19968;-65
2021/01/02 14:20:26;;;;;;;;;;;4.60;99.90;;;;;;5006470;28;19937;-65
2021/01/02 14:22:51;;;;;;;;;;;4.70;99.90;;;;;;5006548;28;19922;-65
2021/01/02 14:25:17;;;;;;;;;;;4.70;99.90;;;;;;5006403;28;19929;-64
2021/01/02 14:27:43;;;;;;;;;;;4.70;99.90;;;;;;5006402;28;19922;-65
2021/01/02 14:30:09;;;;;;;;;;;4.80;99.90;;;;;;5006275;28;19934;-64
2021/01/02 14:32:35;;;;;;;;;;;4.70;99.90;;;;;;5006397;28;19922;-64
2021/01/02 14:35:00;;;;;;;;;;;4.60;99.90;;;;;;5006360;28;19922;-65
2021/01/02 14:37:26;;;;;;;;;;;4.60;99.90;;;;;;5007880;28;20016;-64